createdAt,value
2018-12-11T00:00:10.896Z,85.75
2018-12-11T00:01:03.837Z,85.75
2018-12-11T00:02:10.880Z,85.75
2018-12-11T00:04:30.538Z,85.96
2018-12-11T00:05:38.341Z,85.86
2018-12-11T00:06:38.368Z,85.27
2018-12-11T00:07:30.517Z,86.00
2018-12-11T00:08:30.492Z,85.79
2018-12-11T00:09:30.481Z,86.10
2018-12-11T00:10:30.476Z,86.00
2018-12-11T00:11:34.007Z,86.07
2018-12-11T00:12:30.465Z,85.96
2018-12-11T00:13:30.494Z,85.96
2018-12-11T00:14:30.433Z,85.96
2018-12-11T00:15:30.423Z,84.51
2018-12-11T00:16:30.408Z,85.24
2018-12-11T00:17:30.415Z,84.72
2018-12-11T00:18:30.400Z,85.13
2018-12-11T00:19:30.382Z,84.92
2018-12-11T00:20:30.370Z,84.51
2018-12-11T00:21:30.368Z,84.61
2018-12-11T00:22:30.385Z,84.41
2018-12-11T00:23:30.335Z,84.41
2018-12-11T00:24:30.322Z,84.20
2018-12-11T00:25:30.312Z,84.51
2018-12-11T00:26:30.308Z,84.72
2018-12-11T00:27:30.299Z,84.30
2018-12-11T00:28:30.294Z,84.51
2018-12-11T00:29:30.334Z,83.99
2018-12-11T00:30:30.301Z,84.72
2018-12-11T00:31:30.248Z,84.61
2018-12-11T00:32:30.246Z,84.30
2018-12-11T00:33:30.227Z,83.78
2018-12-11T00:34:30.221Z,84.09
2018-12-11T00:35:30.211Z,84.30
2018-12-11T00:36:30.206Z,84.30
2018-12-11T00:37:30.189Z,84.75
2018-12-11T00:38:30.182Z,84.20
2018-12-11T00:39:30.174Z,84.20
2018-12-11T00:40:30.154Z,84.30
2018-12-11T00:41:30.161Z,83.99
2018-12-11T00:42:30.132Z,84.30
2018-12-11T00:43:30.126Z,84.23
2018-12-11T00:44:30.110Z,83.68
2018-12-11T00:45:30.102Z,83.26
2018-12-11T00:46:30.130Z,83.47
2018-12-11T00:47:30.078Z,83.47
2018-12-11T00:48:30.074Z,83.83
2018-12-11T00:49:30.057Z,83.89
2018-12-11T00:50:30.047Z,83.47
2018-12-11T00:51:30.035Z,83.68
2018-12-11T00:52:30.036Z,83.62
2018-12-11T00:53:30.021Z,83.51
2018-12-11T00:54:30.010Z,84.13
2018-12-11T00:55:29.993Z,84.13
2018-12-11T00:56:29.986Z,83.78
2018-12-11T00:57:29.984Z,84.13
2018-12-11T00:58:29.966Z,83.78
2018-12-11T00:59:29.952Z,83.89
2018-12-11T01:00:29.945Z,84.51
2018-12-11T01:01:29.929Z,84.20
2018-12-11T01:02:29.932Z,83.99
2018-12-11T01:03:29.908Z,84.61
2018-12-11T01:04:29.902Z,83.99
2018-12-11T01:05:29.891Z,84.51
2018-12-11T01:06:29.878Z,84.09
2018-12-11T01:07:29.871Z,84.09
2018-12-11T01:08:29.871Z,84.20
2018-12-11T01:09:29.844Z,84.20
2018-12-11T01:10:29.838Z,83.89
2018-12-11T01:11:29.824Z,83.78
2018-12-11T01:12:29.826Z,83.99
2018-12-11T01:13:29.806Z,84.51
2018-12-11T01:14:29.795Z,84.41
2018-12-11T01:15:29.789Z,84.20
2018-12-11T01:16:29.769Z,84.20
2018-12-11T01:17:29.809Z,83.58
2018-12-11T01:18:29.784Z,84.61
2018-12-11T01:19:29.738Z,84.30
2018-12-11T01:20:29.728Z,84.51
2018-12-11T01:21:29.725Z,84.61
2018-12-11T01:22:29.704Z,85.03
2018-12-11T01:23:29.711Z,85.13
2018-12-11T01:24:29.688Z,84.41
2018-12-11T01:25:29.681Z,85.03
2018-12-11T01:26:29.672Z,84.72
2018-12-11T01:27:29.671Z,84.58
2018-12-11T01:28:29.646Z,85.13
2018-12-11T01:29:29.637Z,85.03
2018-12-11T01:30:29.619Z,84.92
2018-12-11T01:31:29.610Z,85.13
2018-12-11T01:32:29.600Z,84.92
2018-12-11T01:33:29.616Z,85.58
2018-12-11T01:34:29.583Z,85.89
2018-12-11T01:35:29.574Z,86.07
2018-12-11T01:36:29.560Z,86.17
2018-12-11T01:37:29.551Z,85.86
2018-12-11T01:38:29.538Z,85.55
2018-12-11T01:39:29.535Z,86.17
2018-12-11T01:40:29.514Z,86.07
2018-12-11T01:41:29.502Z,85.96
2018-12-11T01:42:29.492Z,85.75
2018-12-11T01:43:29.525Z,86.07
2018-12-11T01:44:29.474Z,86.17
2018-12-11T01:45:29.462Z,86.07
2018-12-11T01:46:29.450Z,85.06
2018-12-11T01:47:29.439Z,85.86
2018-12-11T01:48:29.433Z,85.96
2018-12-11T01:49:29.478Z,85.96
2018-12-11T01:50:29.409Z,85.96
2018-12-11T01:51:29.396Z,85.96
2018-12-11T01:52:29.389Z,85.96
2018-12-11T01:53:29.381Z,85.86
2018-12-11T01:54:29.364Z,85.96
2018-12-11T01:55:29.369Z,85.44
2018-12-11T01:56:29.363Z,85.55
2018-12-11T01:57:29.340Z,85.86
2018-12-11T01:58:29.329Z,85.44
2018-12-11T01:59:29.353Z,85.24
2018-12-11T02:00:29.307Z,85.13
2018-12-11T02:01:29.292Z,86.17
2018-12-11T02:02:29.280Z,86.07
2018-12-11T02:03:29.279Z,85.86
2018-12-11T02:04:29.264Z,85.86
2018-12-11T02:05:29.260Z,85.96
2018-12-11T02:06:29.237Z,85.86
2018-12-11T02:07:29.234Z,85.86
2018-12-11T02:08:29.237Z,85.96
2018-12-11T02:09:29.205Z,85.86
2018-12-11T02:10:29.200Z,85.96
2018-12-11T02:11:29.186Z,85.96
2018-12-11T02:12:29.179Z,85.44
2018-12-11T02:13:29.168Z,85.03
2018-12-11T02:14:29.175Z,85.03
2018-12-11T02:15:29.185Z,85.13
2018-12-11T02:16:29.133Z,85.44
2018-12-11T02:17:29.125Z,85.24
2018-12-11T02:18:29.113Z,85.24
2018-12-11T02:19:29.109Z,85.44
2018-12-11T02:20:29.092Z,85.03
2018-12-11T02:21:29.092Z,85.13
2018-12-11T02:22:29.104Z,85.34
2018-12-11T02:23:29.058Z,85.44
2018-12-11T02:24:29.053Z,85.34
2018-12-11T02:25:29.042Z,85.34
2018-12-11T02:26:29.038Z,85.96
2018-12-11T02:27:29.022Z,85.34
2018-12-11T02:28:29.016Z,85.75
2018-12-11T02:29:29.000Z,85.96
2018-12-11T02:30:28.990Z,85.75
2018-12-11T02:31:29.013Z,85.30
2018-12-11T02:32:28.968Z,85.13
2018-12-11T02:33:28.956Z,84.99
2018-12-11T02:34:28.944Z,85.03
2018-12-11T02:35:28.937Z,84.92
2018-12-11T02:36:28.928Z,85.09
2018-12-11T02:37:28.926Z,85.34
2018-12-11T02:38:28.916Z,85.09
2018-12-11T02:39:28.894Z,84.82
2018-12-11T02:40:28.879Z,85.03
2018-12-11T02:41:28.868Z,85.19
2018-12-11T02:42:28.867Z,85.44
2018-12-11T02:43:28.862Z,84.82
2018-12-11T02:44:28.839Z,84.99
2018-12-11T02:45:28.835Z,84.58
2018-12-11T02:46:28.819Z,84.61
2018-12-11T02:47:28.812Z,85.19
2018-12-11T02:48:28.808Z,84.99
2018-12-11T02:49:28.785Z,85.30
2018-12-11T02:50:28.775Z,85.13
2018-12-11T02:51:28.772Z,85.13
2018-12-11T02:52:28.757Z,85.19
2018-12-11T02:53:28.753Z,84.88
2018-12-11T02:54:28.741Z,84.06
2018-12-11T02:55:28.734Z,84.47
2018-12-11T02:56:28.716Z,84.47
2018-12-11T02:57:28.699Z,84.51
2018-12-11T02:58:28.701Z,84.37
2018-12-11T02:59:28.680Z,84.37
2018-12-11T03:00:28.674Z,84.16
2018-12-11T03:01:28.656Z,84.27
2018-12-11T03:02:28.650Z,83.95
2018-12-11T03:03:28.651Z,84.37
2018-12-11T03:04:28.652Z,84.37
2018-12-11T03:05:28.618Z,84.72
2018-12-11T03:06:28.604Z,84.68
2018-12-11T03:07:28.593Z,84.37
2018-12-11T03:08:28.616Z,84.37
2018-12-11T03:09:28.577Z,84.47
2018-12-11T03:10:28.563Z,84.06
2018-12-11T03:11:28.553Z,84.27
2018-12-11T03:12:28.574Z,84.06
2018-12-11T03:13:28.541Z,84.47
2018-12-11T03:14:28.537Z,84.37
2018-12-11T03:15:28.513Z,84.47
2018-12-11T03:16:28.498Z,84.41
2018-12-11T03:17:28.487Z,84.16
2018-12-11T03:18:28.487Z,83.95
2018-12-11T03:19:28.473Z,83.64
2018-12-11T03:20:28.462Z,83.33
2018-12-11T03:21:28.456Z,83.78
2018-12-11T03:22:28.436Z,83.95
2018-12-11T03:23:28.444Z,83.75
2018-12-11T03:24:28.420Z,83.54
2018-12-11T03:25:28.408Z,83.54
2018-12-11T03:26:28.401Z,83.54
2018-12-11T03:27:28.389Z,83.78
2018-12-11T03:28:28.411Z,83.64
2018-12-11T03:29:28.365Z,83.23
2018-12-11T03:30:28.358Z,83.33
2018-12-11T03:31:28.347Z,83.23
2018-12-11T03:32:28.332Z,83.44
2018-12-11T03:33:28.319Z,83.44
2018-12-11T03:34:28.321Z,82.92
2018-12-11T03:35:28.304Z,82.92
2018-12-11T03:36:28.293Z,83.12
2018-12-11T03:37:28.280Z,83.23
2018-12-11T03:38:28.274Z,83.33
2018-12-11T03:39:28.292Z,82.81
2018-12-11T03:40:28.245Z,83.12
2018-12-11T03:41:28.239Z,82.81
2018-12-11T03:42:28.226Z,82.92
2018-12-11T03:43:28.216Z,83.02
2018-12-11T03:44:28.210Z,83.23
2018-12-11T03:45:28.220Z,83.02
2018-12-11T03:46:42.889Z,83.12
2018-12-11T03:47:28.171Z,82.92
2018-12-11T03:48:28.160Z,82.60
2018-12-11T03:49:28.159Z,82.40
2018-12-11T03:50:28.186Z,82.81
2018-12-11T03:51:28.130Z,82.81
2018-12-11T03:52:28.129Z,82.50
2018-12-11T03:53:28.109Z,82.46
2018-12-11T03:54:28.102Z,83.02
2018-12-11T03:55:28.094Z,82.92
2018-12-11T03:56:28.094Z,83.23
2018-12-11T03:57:28.072Z,82.92
2018-12-11T03:58:28.060Z,82.92
2018-12-11T03:59:28.048Z,82.92
2018-12-11T04:00:28.033Z,83.12
2018-12-11T04:01:28.037Z,82.60
2018-12-11T04:02:28.016Z,82.60
2018-12-11T04:03:28.007Z,82.50
2018-12-11T04:04:27.997Z,82.92
2018-12-11T04:05:27.985Z,83.12
2018-12-11T04:06:28.013Z,82.81
2018-12-11T04:07:27.966Z,83.33
2018-12-11T04:08:27.948Z,83.64
2018-12-11T04:09:27.947Z,83.44
2018-12-11T04:10:27.928Z,83.85
2018-12-11T04:11:27.916Z,83.75
2018-12-11T04:12:27.924Z,82.92
2018-12-11T04:13:27.914Z,83.75
2018-12-11T04:14:27.892Z,83.95
2018-12-11T04:15:27.880Z,82.81
2018-12-11T04:16:27.864Z,83.12
2018-12-11T04:17:27.871Z,83.54
2018-12-11T04:18:27.859Z,83.23
2018-12-11T04:19:27.840Z,83.85
2018-12-11T04:20:27.824Z,83.44
2018-12-11T04:21:27.812Z,83.23
2018-12-11T04:22:27.807Z,83.54
2018-12-11T04:23:27.791Z,83.02
2018-12-11T04:24:27.799Z,83.12
2018-12-11T04:25:27.776Z,83.02
2018-12-11T04:26:27.765Z,82.81
2018-12-11T04:27:27.748Z,83.12
2018-12-11T04:28:27.744Z,83.23
2018-12-11T04:29:27.739Z,83.44
2018-12-11T04:30:27.725Z,83.95
2018-12-11T04:31:27.709Z,83.75
2018-12-11T04:32:27.703Z,84.68
2018-12-11T04:33:27.692Z,85.09
2018-12-11T04:34:27.696Z,85.03
2018-12-11T04:35:27.675Z,85.44
2018-12-11T04:36:27.660Z,84.99
2018-12-11T04:37:27.655Z,86.02
2018-12-11T04:38:27.646Z,85.96
2018-12-11T04:39:33.644Z,85.71
2018-12-11T04:40:28.623Z,84.82
2018-12-11T04:41:27.615Z,85.34
2018-12-11T04:42:27.599Z,85.13
2018-12-11T04:43:27.589Z,84.47
2018-12-11T04:44:27.574Z,84.41
2018-12-11T04:45:27.577Z,84.72
2018-12-11T04:46:27.567Z,85.13
2018-12-11T04:47:27.560Z,85.03
2018-12-11T04:48:27.536Z,85.75
2018-12-11T04:49:27.525Z,85.96
2018-12-11T04:50:27.508Z,85.75
2018-12-11T04:51:27.541Z,87.88
2018-12-11T04:52:27.489Z,87.27
2018-12-11T04:53:27.493Z,87.78
2018-12-11T04:54:27.474Z,86.44
2018-12-11T04:55:27.462Z,86.33
2018-12-11T04:56:27.452Z,86.33
2018-12-11T04:57:27.449Z,86.75
2018-12-11T04:58:27.432Z,86.79
2018-12-11T04:59:27.415Z,86.68
2018-12-11T05:00:27.410Z,86.79
2018-12-11T05:01:27.398Z,88.03
2018-12-11T05:02:27.406Z,88.13
2018-12-11T05:03:27.377Z,88.07
2018-12-11T05:04:27.361Z,86.99
2018-12-11T05:05:27.353Z,87.35
2018-12-11T05:06:27.347Z,87.82
2018-12-11T05:07:27.350Z,88.24
2018-12-11T05:08:27.327Z,88.65
2018-12-11T05:09:27.313Z,88.45
2018-12-11T05:10:27.305Z,88.39
2018-12-11T05:11:27.288Z,88.69
2018-12-11T05:12:27.294Z,88.07
2018-12-11T05:13:27.311Z,88.18
2018-12-11T05:14:27.265Z,88.18
2018-12-11T05:15:27.252Z,88.59
2018-12-11T05:16:27.236Z,89.21
2018-12-11T05:17:27.231Z,88.59
2018-12-11T05:18:27.214Z,89.11
2018-12-11T05:19:27.219Z,89.11
2018-12-11T05:20:27.198Z,89.52
2018-12-11T05:21:27.181Z,89.11
2018-12-11T05:22:27.185Z,89.52
2018-12-11T05:23:27.160Z,89.83
2018-12-11T05:24:27.181Z,88.59
2018-12-11T05:25:27.147Z,88.59
2018-12-11T05:26:27.129Z,88.69
2018-12-11T05:27:27.117Z,88.79
2018-12-11T05:28:27.107Z,89.21
2018-12-11T05:29:27.097Z,89.42
2018-12-11T05:30:27.101Z,88.39
2018-12-11T05:31:27.099Z,88.48
2018-12-11T05:32:27.081Z,89.79
2018-12-11T05:33:27.055Z,89.42
2018-12-11T05:34:27.049Z,88.13
2018-12-11T05:35:27.047Z,86.89
2018-12-11T05:36:27.033Z,86.79
2018-12-11T05:37:27.017Z,87.10
2018-12-11T05:38:27.008Z,88.28
2018-12-11T05:39:26.990Z,87.55
2018-12-11T05:40:26.994Z,87.35
2018-12-11T05:41:26.979Z,88.18
2018-12-11T05:42:26.965Z,88.07
2018-12-11T05:43:26.953Z,88.48
2018-12-11T05:44:26.938Z,88.79
2018-12-11T05:45:26.939Z,88.39
2018-12-11T05:46:26.925Z,87.24
2018-12-11T05:47:26.908Z,87.35
2018-12-11T05:48:26.901Z,87.45
2018-12-11T05:49:26.891Z,86.93
2018-12-11T05:50:26.896Z,86.72
2018-12-11T05:51:26.904Z,87.45
2018-12-11T05:52:26.854Z,88.69
2018-12-11T05:53:26.851Z,88.34
2018-12-11T05:54:26.837Z,88.48
2018-12-11T05:55:26.826Z,88.69
2018-12-11T05:56:26.818Z,88.07
2018-12-11T05:57:26.841Z,88.79
2018-12-11T05:58:26.791Z,88.28
2018-12-11T05:59:26.786Z,88.28
2018-12-11T06:00:26.773Z,88.28
2018-12-11T06:01:26.764Z,88.39
2018-12-11T06:02:26.781Z,88.59
2018-12-11T06:03:26.820Z,88.69
2018-12-11T06:04:26.762Z,88.59
2018-12-11T06:05:26.716Z,88.07
2018-12-11T06:06:26.717Z,88.18
2018-12-11T06:07:26.696Z,88.28
2018-12-11T06:08:26.685Z,88.59
2018-12-11T06:09:26.688Z,88.39
2018-12-11T06:10:26.663Z,88.39
2018-12-11T06:11:26.659Z,88.69
2018-12-11T06:12:26.648Z,89.11
2018-12-11T06:13:26.632Z,88.28
2018-12-11T06:14:26.635Z,88.48
2018-12-11T06:15:26.616Z,88.69
2018-12-11T06:16:26.601Z,88.59
2018-12-11T06:17:26.594Z,88.79
2018-12-11T06:18:26.584Z,88.48
2018-12-11T06:19:26.596Z,89.00
2018-12-11T06:20:26.561Z,89.21
2018-12-11T06:21:26.579Z,88.79
2018-12-11T06:22:26.537Z,89.21
2018-12-11T06:23:26.530Z,89.42
2018-12-11T06:24:26.521Z,89.21
2018-12-11T06:25:26.527Z,89.21
2018-12-11T06:26:26.559Z,89.31
2018-12-11T06:27:26.490Z,89.94
2018-12-11T06:28:26.480Z,89.87
2018-12-11T06:29:26.468Z,89.83
2018-12-11T06:30:26.467Z,90.14
2018-12-11T06:31:26.456Z,89.73
2018-12-11T06:32:26.428Z,89.94
2018-12-11T06:33:26.424Z,90.04
2018-12-11T06:34:26.409Z,90.35
2018-12-11T06:35:26.417Z,90.60
2018-12-11T06:36:26.396Z,90.70
2018-12-11T06:37:26.376Z,90.77
2018-12-11T06:38:26.367Z,89.83
2018-12-11T06:39:26.361Z,90.19
2018-12-11T06:40:26.393Z,89.98
2018-12-11T06:41:26.334Z,89.67
2018-12-11T06:42:33.361Z,89.67
2018-12-11T06:43:34.001Z,89.67
2018-12-11T06:44:26.309Z,89.98
2018-12-11T06:45:26.291Z,89.92
2018-12-11T06:46:26.301Z,90.02
2018-12-11T06:47:26.304Z,90.23
2018-12-11T06:48:26.263Z,90.33
2018-12-11T06:49:26.264Z,90.33
2018-12-11T06:50:26.243Z,90.29
2018-12-11T06:51:26.228Z,90.39
2018-12-11T06:52:26.221Z,90.44
2018-12-11T06:53:26.217Z,90.39
2018-12-11T06:54:26.205Z,90.54
2018-12-11T06:55:26.184Z,90.44
2018-12-11T06:56:26.212Z,90.44
2018-12-11T06:57:26.168Z,90.39
2018-12-11T06:58:26.184Z,90.33
2018-12-11T06:59:26.678Z,90.39
2018-12-11T07:00:26.134Z,90.39
2018-12-11T07:01:26.126Z,90.39
2018-12-11T07:02:26.133Z,90.75
2018-12-11T07:03:26.105Z,90.19
2018-12-11T07:04:26.093Z,90.81
2018-12-11T07:05:26.081Z,90.85
2018-12-11T07:06:26.073Z,91.02
2018-12-11T07:07:26.057Z,90.60
2018-12-11T07:08:26.069Z,90.81
2018-12-11T07:09:26.046Z,91.27
2018-12-11T07:10:26.087Z,90.70
2018-12-11T07:11:26.019Z,90.44
2018-12-11T07:12:26.006Z,90.60
2018-12-11T07:13:25.999Z,90.70
2018-12-11T07:14:25.998Z,90.70
2018-12-11T07:15:25.978Z,90.39
2018-12-11T07:16:25.967Z,90.29
2018-12-11T07:17:25.950Z,90.50
2018-12-11T07:18:26.152Z,90.39
2018-12-11T07:19:25.937Z,90.39
2018-12-11T07:20:25.924Z,90.19
2018-12-11T07:21:25.914Z,91.12
2018-12-11T07:22:25.906Z,90.39
2018-12-11T07:23:25.892Z,90.50
2018-12-11T07:24:25.893Z,90.91
2018-12-11T07:25:25.870Z,90.50
2018-12-11T07:26:25.855Z,90.29
2018-12-11T07:27:25.850Z,90.50
2018-12-11T07:28:25.838Z,90.29
2018-12-11T07:29:25.829Z,89.87
2018-12-11T07:30:25.877Z,90.39
2018-12-11T07:31:25.801Z,89.83
2018-12-11T07:32:25.796Z,89.21
2018-12-11T07:33:25.780Z,88.84
2018-12-11T07:34:25.770Z,88.42
2018-12-11T07:35:25.759Z,88.94
2018-12-11T07:36:25.791Z,88.53
2018-12-11T07:37:25.745Z,88.90
2018-12-11T07:38:25.733Z,89.11
2018-12-11T07:39:25.723Z,89.15
2018-12-11T07:40:25.705Z,89.31
2018-12-11T07:41:25.700Z,89.21
2018-12-11T07:42:25.731Z,89.00
2018-12-11T07:43:25.678Z,90.08
2018-12-11T07:44:25.668Z,90.29
2018-12-11T07:45:25.660Z,89.52
2018-12-11T07:46:25.647Z,89.94
2018-12-11T07:47:25.643Z,88.39
2018-12-11T07:48:25.629Z,89.17
2018-12-11T07:49:25.618Z,89.17
2018-12-11T07:50:25.598Z,86.99
2018-12-11T07:51:25.589Z,86.62
2018-12-11T07:52:25.600Z,86.52
2018-12-11T07:53:25.570Z,87.04
2018-12-11T07:54:25.564Z,87.45
2018-12-11T07:55:25.552Z,88.18
2018-12-11T07:56:25.535Z,88.07
2018-12-11T07:57:25.525Z,88.18
2018-12-11T07:58:25.538Z,88.94
2018-12-11T07:59:25.506Z,89.11
2018-12-11T08:00:25.498Z,89.46
2018-12-11T08:01:25.488Z,89.04
2018-12-11T08:02:25.470Z,88.90
2018-12-11T08:03:25.461Z,89.56
2018-12-11T08:04:25.465Z,89.83
2018-12-11T08:05:25.444Z,89.42
2018-12-11T08:06:25.434Z,89.73
2018-12-11T08:07:25.420Z,90.04
2018-12-11T08:08:25.413Z,89.98
2018-12-11T08:09:25.410Z,89.73
2018-12-11T08:10:25.402Z,89.11
2018-12-11T08:11:25.385Z,89.42
2018-12-11T08:12:25.366Z,89.42
2018-12-11T08:13:25.356Z,89.31
2018-12-11T08:14:25.366Z,89.25
2018-12-11T08:15:25.345Z,89.52
2018-12-11T08:16:25.331Z,89.83
2018-12-11T08:17:25.314Z,89.21
2018-12-11T08:18:25.307Z,89.31
2018-12-11T08:19:25.293Z,89.15
2018-12-11T08:20:25.287Z,89.21
2018-12-11T08:21:25.271Z,89.42
2018-12-11T08:22:25.258Z,89.83
2018-12-11T08:23:25.255Z,89.31
2018-12-11T08:24:25.267Z,89.94
2018-12-11T08:25:25.229Z,90.35
2018-12-11T08:26:25.222Z,90.29
2018-12-11T08:27:25.210Z,90.60
2018-12-11T08:28:25.199Z,90.50
2018-12-11T08:29:25.194Z,90.70
2018-12-11T08:30:25.186Z,90.87
2018-12-11T08:31:25.167Z,91.22
2018-12-11T08:32:25.168Z,90.81
2018-12-11T08:33:25.144Z,90.70
2018-12-11T08:34:25.130Z,90.81
2018-12-11T08:35:25.134Z,90.91
2018-12-11T08:36:25.123Z,91.22
2018-12-11T08:37:25.104Z,91.53
2018-12-11T08:38:25.090Z,92.10
2018-12-11T08:39:25.081Z,91.85
2018-12-11T08:40:25.068Z,92.68
2018-12-11T08:41:25.083Z,92.82
2018-12-11T08:42:25.060Z,92.51
2018-12-11T08:43:25.036Z,92.05
2018-12-11T08:44:25.040Z,92.26
2018-12-11T08:45:25.016Z,92.57
2018-12-11T08:46:25.042Z,92.68
2018-12-11T08:47:25.010Z,92.68
2018-12-11T08:48:24.987Z,92.36
2018-12-11T08:49:24.971Z,92.05
2018-12-11T08:50:24.971Z,92.16
2018-12-11T08:51:24.955Z,91.85
2018-12-11T08:52:24.955Z,92.47
2018-12-11T08:53:24.934Z,92.16
2018-12-11T08:54:24.929Z,91.95
2018-12-11T08:55:24.907Z,92.26
2018-12-11T08:56:24.902Z,92.74
2018-12-11T08:57:24.957Z,92.32
2018-12-11T08:58:24.880Z,91.70
2018-12-11T08:59:24.867Z,91.49
2018-12-11T09:00:24.862Z,91.18
2018-12-11T09:01:24.849Z,92.32
2018-12-11T09:02:24.834Z,91.28
2018-12-11T09:03:24.847Z,90.97
2018-12-11T09:04:24.812Z,91.22
2018-12-11T09:05:24.831Z,91.18
2018-12-11T09:06:24.801Z,90.77
2018-12-11T09:07:24.822Z,91.39
2018-12-11T09:08:24.769Z,90.45
2018-12-11T09:09:24.761Z,91.18
2018-12-11T09:10:24.748Z,91.49
2018-12-11T09:11:24.746Z,91.39
2018-12-11T09:12:24.731Z,91.49
2018-12-11T09:13:24.725Z,91.49
2018-12-11T09:14:24.714Z,91.49
2018-12-11T09:15:24.703Z,91.28
2018-12-11T09:16:24.684Z,91.28
2018-12-11T09:17:24.711Z,91.28
2018-12-11T09:18:24.677Z,91.18
2018-12-11T09:19:24.715Z,91.18
2018-12-11T09:20:24.647Z,91.18
2018-12-11T09:21:24.633Z,91.39
2018-12-11T09:22:24.627Z,91.70
2018-12-11T09:23:24.649Z,91.97
2018-12-11T09:24:24.600Z,91.24
2018-12-11T09:25:24.594Z,91.49
2018-12-11T09:26:24.585Z,91.14
2018-12-11T09:27:24.576Z,91.14
2018-12-11T09:28:24.566Z,91.03
2018-12-11T09:29:24.689Z,91.35
2018-12-11T09:30:24.540Z,91.35
2018-12-11T09:31:24.534Z,91.60
2018-12-11T09:32:24.521Z,91.97
2018-12-11T09:33:24.507Z,92.32
2018-12-11T09:34:24.497Z,91.49
2018-12-11T09:35:24.507Z,91.86
2018-12-11T09:36:24.475Z,91.45
2018-12-11T09:37:24.467Z,91.97
2018-12-11T09:38:24.513Z,91.35
2018-12-11T09:39:24.449Z,92.11
2018-12-11T09:40:24.724Z,92.11
2018-12-11T09:41:24.424Z,91.45
2018-12-11T09:42:27.892Z,91.97
2018-12-11T09:43:24.406Z,91.35
2018-12-11T09:44:24.458Z,91.18
2018-12-11T09:45:24.386Z,92.07
2018-12-11T09:46:24.371Z,91.28
2018-12-11T09:47:24.375Z,90.77
2018-12-11T09:48:24.352Z,90.35
2018-12-11T09:49:24.336Z,90.56
2018-12-11T09:50:24.326Z,90.31
2018-12-11T09:51:24.325Z,90.45
2018-12-11T09:52:24.333Z,90.14
2018-12-11T09:53:24.299Z,90.66
2018-12-11T09:54:24.286Z,90.14
2018-12-11T09:55:24.273Z,91.18
2018-12-11T09:56:24.305Z,90.35
2018-12-11T09:57:24.259Z,90.56
2018-12-11T09:58:24.253Z,90.35
2018-12-11T09:59:24.231Z,90.41
2018-12-11T10:00:27.271Z,90.56
2018-12-11T10:01:24.208Z,90.45
2018-12-11T10:02:24.198Z,89.83
2018-12-11T10:03:24.193Z,89.83
2018-12-11T10:04:24.182Z,89.73
2018-12-11T10:05:24.170Z,89.83
2018-12-11T10:06:24.164Z,89.94
2018-12-11T10:07:24.149Z,89.94
2018-12-11T10:08:24.157Z,89.83
2018-12-11T10:09:24.124Z,90.14
2018-12-11T10:10:24.124Z,89.62
2018-12-11T10:11:24.107Z,89.73
2018-12-11T10:12:24.096Z,90.14
2018-12-11T10:13:24.086Z,89.73
2018-12-11T10:14:24.087Z,89.94
2018-12-11T10:15:24.066Z,89.73
2018-12-11T10:16:24.056Z,89.73
2018-12-11T10:17:24.055Z,89.83
2018-12-11T10:18:24.034Z,89.83
2018-12-11T10:19:24.020Z,90.35
2018-12-11T10:20:24.021Z,90.35
2018-12-11T10:21:23.998Z,89.73
2018-12-11T10:22:23.986Z,89.83
2018-12-11T10:23:24.041Z,90.35
2018-12-11T10:24:23.994Z,90.35
2018-12-11T10:25:23.960Z,90.87
2018-12-11T10:26:23.945Z,90.72
2018-12-11T10:27:23.932Z,90.25
2018-12-11T10:28:23.953Z,90.14
2018-12-11T10:29:23.970Z,90.45
2018-12-11T10:30:23.909Z,90.45
2018-12-11T10:31:23.892Z,90.25
2018-12-11T10:32:23.881Z,90.35
2018-12-11T10:33:23.907Z,90.25
2018-12-11T10:34:23.873Z,90.35
2018-12-11T10:35:23.865Z,90.45
2018-12-11T10:36:23.838Z,90.14
2018-12-11T10:37:23.827Z,90.04
2018-12-11T10:38:23.821Z,89.94
2018-12-11T10:39:23.814Z,89.11
2018-12-11T10:40:23.800Z,89.11
2018-12-11T10:41:23.790Z,89.31
2018-12-11T10:42:23.774Z,89.73
2018-12-11T10:43:23.778Z,89.83
2018-12-11T10:44:23.789Z,90.04
2018-12-11T10:45:23.748Z,89.73
2018-12-11T10:46:23.776Z,89.94
2018-12-11T10:47:23.729Z,90.04
2018-12-11T10:48:23.718Z,89.42
2018-12-11T10:49:23.709Z,90.35
2018-12-11T10:50:23.690Z,89.83
2018-12-11T10:51:23.701Z,91.18
2018-12-11T10:52:23.688Z,90.14
2018-12-11T10:53:23.664Z,90.31
2018-12-11T10:54:23.653Z,90.04
2018-12-11T10:55:23.665Z,89.83
2018-12-11T10:56:23.627Z,89.83
2018-12-11T10:57:23.656Z,89.94
2018-12-11T10:58:23.609Z,89.52
2018-12-11T10:59:23.594Z,90.25
2018-12-11T11:00:23.588Z,89.94
2018-12-11T11:01:23.573Z,90.45
2018-12-11T11:02:23.574Z,90.45
2018-12-11T11:03:23.568Z,90.25
2018-12-11T11:04:23.553Z,90.25
2018-12-11T11:05:23.532Z,90.14
2018-12-11T11:06:23.537Z,90.45
2018-12-11T11:07:23.519Z,90.45
2018-12-11T11:08:23.534Z,90.66
2018-12-11T11:09:23.489Z,90.45
2018-12-11T11:10:23.482Z,90.04
2018-12-11T11:11:23.468Z,89.42
2018-12-11T11:12:23.470Z,90.04
2018-12-11T11:13:23.452Z,90.25
2018-12-11T11:14:23.488Z,91.18
2018-12-11T11:15:23.429Z,92.74
2018-12-11T11:16:23.427Z,91.39
2018-12-11T11:17:23.412Z,90.97
2018-12-11T11:18:23.401Z,90.25
2018-12-11T11:19:23.389Z,89.94
2018-12-11T11:20:23.431Z,89.62
2018-12-11T11:21:23.367Z,89.73
2018-12-11T11:22:23.355Z,90.04
2018-12-11T11:23:23.341Z,90.35
2018-12-11T11:24:23.330Z,90.35
2018-12-11T11:25:23.320Z,90.04
2018-12-11T11:26:23.358Z,90.04
2018-12-11T11:27:23.298Z,90.45
2018-12-11T11:28:23.290Z,90.35
2018-12-11T11:29:23.281Z,90.77
2018-12-11T11:30:23.268Z,91.08
2018-12-11T11:31:23.258Z,90.77
2018-12-11T11:32:23.256Z,90.77
2018-12-11T11:33:23.242Z,90.77
2018-12-11T11:34:23.233Z,90.25
2018-12-11T11:35:23.220Z,90.35
2018-12-11T11:36:23.213Z,90.35
2018-12-11T11:37:23.193Z,90.77
2018-12-11T11:38:23.198Z,90.25
2018-12-11T11:39:23.184Z,90.87
2018-12-11T11:40:23.171Z,90.39
2018-12-11T11:41:23.169Z,90.66
2018-12-11T11:42:23.141Z,91.43
2018-12-11T11:43:23.135Z,91.22
2018-12-11T11:44:23.126Z,91.02
2018-12-11T11:45:23.118Z,90.45
2018-12-11T11:46:23.108Z,90.56
2018-12-11T11:47:23.098Z,90.25
2018-12-11T11:48:23.082Z,89.87
2018-12-11T11:49:23.080Z,89.94
2018-12-11T11:50:23.065Z,89.73
2018-12-11T11:51:23.051Z,89.42
2018-12-11T11:52:23.042Z,89.77
2018-12-11T11:53:23.033Z,89.98
2018-12-11T11:54:23.014Z,89.94
2018-12-11T11:55:23.009Z,89.77
2018-12-11T11:56:22.999Z,89.67
2018-12-11T11:57:22.982Z,89.98
2018-12-11T11:58:22.990Z,90.39
2018-12-11T11:59:22.961Z,90.35
2018-12-11T12:00:22.952Z,90.35
2018-12-11T12:01:22.939Z,90.25
2018-12-11T12:02:22.930Z,90.14
2018-12-11T12:03:22.927Z,90.25
2018-12-11T12:04:22.913Z,90.25
2018-12-11T12:05:22.897Z,89.94
2018-12-11T12:06:22.894Z,89.73
2018-12-11T12:07:22.882Z,90.35
2018-12-11T12:08:22.923Z,90.25
2018-12-11T12:09:22.859Z,90.35
2018-12-11T12:10:22.846Z,89.94
2018-12-11T12:11:22.835Z,89.73
2018-12-11T12:12:22.823Z,90.04
2018-12-11T12:13:22.817Z,89.73
2018-12-11T12:14:22.825Z,90.25
2018-12-11T12:15:22.795Z,90.25
2018-12-11T12:16:22.781Z,91.28
2018-12-11T12:17:22.797Z,92.43
2018-12-11T12:18:22.759Z,92.22
2018-12-11T12:19:22.753Z,90.87
2018-12-11T12:20:22.754Z,90.56
2018-12-11T12:21:22.736Z,90.04
2018-12-11T12:22:22.726Z,90.35
2018-12-11T12:23:22.708Z,90.14
2018-12-11T12:24:22.821Z,90.25
2018-12-11T12:25:22.691Z,90.14
2018-12-11T12:26:22.685Z,90.35
2018-12-11T12:27:22.675Z,90.04
2018-12-11T12:28:22.659Z,90.20
2018-12-11T12:29:22.647Z,90.25
2018-12-11T12:30:22.649Z,90.25
2018-12-11T12:31:22.623Z,90.25
2018-12-11T12:32:22.619Z,90.20
2018-12-11T12:33:22.607Z,90.20
2018-12-11T12:34:22.599Z,90.04
2018-12-11T12:35:22.593Z,90.35
2018-12-11T12:36:22.578Z,90.25
2018-12-11T12:37:22.559Z,89.73
2018-12-11T12:38:22.557Z,89.73
2018-12-11T12:39:22.545Z,90.14
2018-12-11T12:40:22.573Z,90.35
2018-12-11T12:41:22.517Z,90.45
2018-12-11T12:42:22.507Z,90.83
2018-12-11T12:43:22.499Z,90.45
2018-12-11T12:44:22.484Z,90.77
2018-12-11T12:45:22.483Z,89.69
2018-12-11T12:46:22.478Z,90.35
2018-12-11T12:47:22.479Z,90.41
2018-12-11T12:48:22.441Z,90.56
2018-12-11T12:49:22.436Z,90.72
2018-12-11T12:50:22.421Z,90.66
2018-12-11T12:51:22.476Z,90.87
2018-12-11T12:52:22.400Z,91.18
2018-12-11T12:53:22.396Z,91.08